createdAt,value
2022-08-28T00:00:25.806Z,14.01
2022-08-28T00:02:53.703Z,14.07
2022-08-28T00:05:23.004Z,14.13
2022-08-28T00:07:50.199Z,14.20
2022-08-28T00:10:20.084Z,14.23
2022-08-28T00:12:51.789Z,14.31
2022-08-28T00:15:23.309Z,14.34
2022-08-28T00:17:50.557Z,14.28
2022-08-28T00:20:19.964Z,14.19
2022-08-28T00:22:47.651Z,14.08
2022-08-28T00:25:16.798Z,14.10
2022-08-28T00:27:52.751Z,14.09
2022-08-28T00:30:36.069Z,14.08
2022-08-28T00:33:09.664Z,14.11
2022-08-28T00:35:38.488Z,14.11
2022-08-28T00:38:06.056Z,14.00
2022-08-28T00:40:34.220Z,13.94
2022-08-28T00:43:03.391Z,13.93
2022-08-28T00:45:34.849Z,13.92
2022-08-28T00:48:04.314Z,13.93
2022-08-28T00:50:52.589Z,13.90
2022-08-28T00:53:20.564Z,13.83
2022-08-28T00:55:50.534Z,13.97
2022-08-28T00:58:18.045Z,14.20
2022-08-28T01:00:44.852Z,14.23
2022-08-28T01:03:11.753Z,14.20
2022-08-28T01:05:43.531Z,14.19
2022-08-28T01:08:10.368Z,14.11
2022-08-28T01:10:40.568Z,14.00
2022-08-28T01:13:07.590Z,13.85
2022-08-28T01:15:37.670Z,13.73
2022-08-28T01:18:08.514Z,13.59
2022-08-28T01:20:41.832Z,13.52
2022-08-28T01:24:07.469Z,13.47
2022-08-28T01:26:34.301Z,13.51
2022-08-28T01:29:01.914Z,13.52
2022-08-28T01:31:31.512Z,13.59
2022-08-28T01:34:01.684Z,13.63
2022-08-28T01:36:29.612Z,13.64
2022-08-28T01:39:01.356Z,13.65
2022-08-28T01:41:29.609Z,13.68
2022-08-28T01:43:57.058Z,13.69
2022-08-28T01:46:23.888Z,13.67
2022-08-28T01:48:50.776Z,13.63
2022-08-28T01:51:21.479Z,13.75
2022-08-28T01:53:51.525Z,13.85
2022-08-28T01:56:19.210Z,13.90
2022-08-28T01:58:48.204Z,13.94
2022-08-28T02:01:19.943Z,13.95
2022-08-28T02:03:47.660Z,14.03
2022-08-28T02:06:15.991Z,14.02
2022-08-28T02:08:42.756Z,13.96
2022-08-28T02:11:10.362Z,13.95
2022-08-28T02:13:38.116Z,13.96
2022-08-28T02:16:08.776Z,14.03
2022-08-28T02:18:36.710Z,13.96
2022-08-28T02:21:04.994Z,13.99
2022-08-28T02:23:32.196Z,13.93
2022-08-28T02:25:59.016Z,13.93
2022-08-28T02:28:25.791Z,13.94
2022-08-28T02:30:52.635Z,13.90
2022-08-28T02:33:19.441Z,13.89
2022-08-28T02:35:46.342Z,13.92
2022-08-28T02:38:14.146Z,13.89
2022-08-28T02:40:41.391Z,13.93
2022-08-28T02:43:08.315Z,13.90
2022-08-28T02:45:35.813Z,13.97
2022-08-28T02:48:03.279Z,13.98
2022-08-28T02:50:31.493Z,13.92
2022-08-28T02:52:58.691Z,13.85
2022-08-28T02:55:25.892Z,13.77
2022-08-28T02:57:52.884Z,13.80
2022-08-28T03:00:23.995Z,13.94
2022-08-28T03:02:51.848Z,13.97
2022-08-28T03:05:21.352Z,14.05
2022-08-28T03:07:48.842Z,14.22
2022-08-28T03:10:16.381Z,14.39
2022-08-28T03:12:43.184Z,14.44
2022-08-28T03:15:10.336Z,14.52
2022-08-28T03:17:37.278Z,14.64
2022-08-28T03:20:06.755Z,14.61
2022-08-28T03:22:52.080Z,14.54
2022-08-28T03:25:19.005Z,14.45
2022-08-28T03:27:45.761Z,14.34
2022-08-28T03:30:14.484Z,14.34
2022-08-28T03:32:41.296Z,14.51
2022-08-28T03:35:08.377Z,14.48
2022-08-28T03:37:35.792Z,14.38
2022-08-28T03:40:03.533Z,14.25
2022-08-28T03:42:31.134Z,14.25
2022-08-28T03:44:59.337Z,14.25
2022-08-28T03:47:28.320Z,14.27
2022-08-28T03:49:59.939Z,14.31
2022-08-28T03:52:27.048Z,14.33
2022-08-28T03:54:55.207Z,14.29
2022-08-28T03:57:23.766Z,14.18
2022-08-28T03:59:52.569Z,13.96
2022-08-28T04:02:20.551Z,13.83
2022-08-28T04:04:49.140Z,13.73
2022-08-28T04:07:17.740Z,13.58
2022-08-28T04:09:44.953Z,13.55
2022-08-28T04:12:11.989Z,13.62
2022-08-28T04:14:38.841Z,13.62
2022-08-28T04:17:06.789Z,13.62
2022-08-28T04:19:33.801Z,13.69
2022-08-28T04:22:01.260Z,13.81
2022-08-28T04:24:28.105Z,13.85
2022-08-28T04:26:54.867Z,13.82
2022-08-28T04:29:22.998Z,13.77
2022-08-28T04:31:50.481Z,13.69
2022-08-28T04:34:17.992Z,13.73
2022-08-28T04:36:46.053Z,13.77
2022-08-28T04:39:13.253Z,13.73
2022-08-28T04:41:40.501Z,13.69
2022-08-28T04:44:07.346Z,13.67
2022-08-28T04:46:34.601Z,13.61
2022-08-28T04:49:01.351Z,13.74
2022-08-28T04:51:28.832Z,13.83
2022-08-28T04:53:56.766Z,13.93
2022-08-28T04:56:24.316Z,13.96
2022-08-28T04:58:51.300Z,14.12
2022-08-28T05:01:24.565Z,14.20
2022-08-28T05:03:57.432Z,14.15
2022-08-28T05:06:28.613Z,14.26
2022-08-28T05:09:00.664Z,14.27
2022-08-28T05:11:34.650Z,14.42
2022-08-28T05:14:04.714Z,14.72
2022-08-28T05:16:32.382Z,15.01
2022-08-28T05:19:01.290Z,15.35
2022-08-28T05:21:28.362Z,15.65
2022-08-28T05:23:57.468Z,15.90
2022-08-28T05:26:27.008Z,16.12
2022-08-28T05:28:56.948Z,16.23
2022-08-28T05:31:25.887Z,16.33
2022-08-28T05:33:53.614Z,16.26
2022-08-28T05:36:22.760Z,16.17
2022-08-28T05:38:51.236Z,15.94
2022-08-28T05:41:24.285Z,15.73
2022-08-28T05:43:52.935Z,15.51
2022-08-28T05:46:20.697Z,15.41
2022-08-28T05:48:49.419Z,15.25
2022-08-28T05:51:22.815Z,15.10
2022-08-28T05:53:50.195Z,14.94
2022-08-28T05:56:20.694Z,14.79
2022-08-28T05:58:48.138Z,14.71
2022-08-28T06:01:22.457Z,14.83
2022-08-28T06:04:00.940Z,15.22
2022-08-28T06:06:30.018Z,15.70
2022-08-28T06:09:19.217Z,16.14
2022-08-28T06:11:46.759Z,16.17
2022-08-28T06:14:17.401Z,16.37
2022-08-28T06:16:47.285Z,16.88
2022-08-28T06:19:16.947Z,17.48
2022-08-28T06:21:44.705Z,17.88
2022-08-28T06:24:12.191Z,18.30
2022-08-28T06:26:39.173Z,18.70
2022-08-28T06:29:09.667Z,19.22
2022-08-28T06:31:37.258Z,19.39
2022-08-28T06:34:04.523Z,19.53
2022-08-28T06:36:33.845Z,19.52
2022-08-28T06:39:02.773Z,19.63
2022-08-28T06:41:32.104Z,19.96
2022-08-28T06:43:59.901Z,20.21
2022-08-28T06:46:30.310Z,20.08
2022-08-28T06:48:57.151Z,20.27
2022-08-28T06:51:24.996Z,20.14
2022-08-28T06:53:52.067Z,20.33
2022-08-28T06:56:26.535Z,20.60
2022-08-28T06:58:56.164Z,20.17
2022-08-28T07:01:29.528Z,20.25
2022-08-28T07:03:59.638Z,20.45
2022-08-28T07:06:27.572Z,20.24
2022-08-28T07:08:54.366Z,20.48
2022-08-28T07:11:28.907Z,20.41
2022-08-28T07:13:57.508Z,20.89
2022-08-28T07:16:27.705Z,21.13
2022-08-28T07:18:54.639Z,21.01
2022-08-28T07:21:22.119Z,20.87
2022-08-28T07:23:49.160Z,20.36
2022-08-28T07:26:19.237Z,19.23
2022-08-28T07:28:46.539Z,18.72
2022-08-28T07:31:16.440Z,18.41
2022-08-28T07:33:43.736Z,19.43
2022-08-28T07:36:29.232Z,19.88
2022-08-28T07:38:59.064Z,20.90
2022-08-28T07:41:30.077Z,21.41
2022-08-28T07:44:16.076Z,22.39
2022-08-28T07:46:43.384Z,22.19
2022-08-28T07:49:11.447Z,22.04
2022-08-28T07:51:38.416Z,21.84
2022-08-28T07:54:05.592Z,21.66
2022-08-28T07:56:33.147Z,22.16
2022-08-28T07:59:03.247Z,23.04
2022-08-28T08:01:30.900Z,23.18
2022-08-28T08:04:01.285Z,22.92
2022-08-28T08:06:33.065Z,23.02
2022-08-28T08:09:02.631Z,22.81
2022-08-28T08:11:32.567Z,22.42
2022-08-28T08:14:05.475Z,21.90
2022-08-28T08:16:35.576Z,21.32
2022-08-28T08:19:03.437Z,20.75
2022-08-28T08:21:30.833Z,21.20
2022-08-28T08:23:58.266Z,22.04
2022-08-28T08:26:28.270Z,22.82
2022-08-28T08:28:56.087Z,23.47
2022-08-28T08:31:33.208Z,23.45
2022-08-28T08:34:02.592Z,23.86
2022-08-28T08:36:31.749Z,24.02
2022-08-28T08:39:00.406Z,23.84
2022-08-28T08:41:51.116Z,23.96
2022-08-28T08:44:45.476Z,23.62
2022-08-28T08:47:19.400Z,21.68
2022-08-28T08:50:24.161Z,20.87
2022-08-28T08:52:56.883Z,21.72
2022-08-28T08:55:28.495Z,21.84
2022-08-28T08:58:06.669Z,22.39
2022-08-28T09:00:39.486Z,22.97
2022-08-28T09:03:38.574Z,23.78
2022-08-28T09:06:56.468Z,24.07
2022-08-28T09:09:42.278Z,23.16
2022-08-28T09:12:14.916Z,22.50
2022-08-28T09:14:50.044Z,22.04
2022-08-28T09:17:19.913Z,21.67
2022-08-28T09:19:46.780Z,21.25
2022-08-28T09:22:13.579Z,21.68
2022-08-28T09:24:41.993Z,22.36
2022-08-28T09:27:23.483Z,21.81
2022-08-28T09:30:02.544Z,21.56
2022-08-28T09:32:44.588Z,21.65
2022-08-28T09:35:29.445Z,21.56
2022-08-28T09:38:15.932Z,21.48
2022-08-28T09:41:01.373Z,21.97
2022-08-28T09:43:28.822Z,23.06
2022-08-28T09:46:05.743Z,24.26
2022-08-28T09:48:43.678Z,22.93
2022-08-28T09:51:30.522Z,22.73
2022-08-28T09:54:08.123Z,23.39
2022-08-28T09:56:40.913Z,23.73
2022-08-28T09:59:16.973Z,25.15
2022-08-28T10:01:51.423Z,25.04
2022-08-28T10:04:40.669Z,24.83
2022-08-28T10:07:13.741Z,23.26
2022-08-28T10:09:58.854Z,23.31
2022-08-28T10:12:32.516Z,23.94
2022-08-28T10:15:04.733Z,25.13
2022-08-28T10:17:34.393Z,23.75
2022-08-28T10:20:10.334Z,22.71
2022-08-28T10:23:00.809Z,23.35
2022-08-28T10:25:51.992Z,25.00
2022-08-28T10:28:27.959Z,25.87
2022-08-28T10:31:26.824Z,26.15
2022-08-28T10:34:30.666Z,26.77
2022-08-28T10:37:14.193Z,27.28
2022-08-28T10:39:57.808Z,26.87
2022-08-28T10:42:38.226Z,26.09
2022-08-28T10:45:15.214Z,25.04
2022-08-28T10:47:47.060Z,23.74
2022-08-28T10:50:28.251Z,22.85
2022-08-28T10:53:09.986Z,22.60
2022-08-28T10:55:48.593Z,23.72
2022-08-28T10:58:25.103Z,24.85
2022-08-28T11:01:01.093Z,25.79
2022-08-28T11:03:36.680Z,26.64
2022-08-28T11:06:31.454Z,24.77
2022-08-28T11:09:20.685Z,23.38
2022-08-28T11:11:49.111Z,23.86
2022-08-28T11:14:28.546Z,23.44
2022-08-28T11:17:01.579Z,25.49
2022-08-28T11:19:59.124Z,24.73
2022-08-28T11:22:37.830Z,23.59
2022-08-28T11:25:26.643Z,23.69
2022-08-28T11:28:24.075Z,22.97
2022-08-28T11:31:06.219Z,22.04
2022-08-28T11:33:45.432Z,22.63
2022-08-28T11:36:32.593Z,25.07
2022-08-28T11:39:15.803Z,24.49
2022-08-28T11:42:10.482Z,24.75
2022-08-28T11:44:45.987Z,25.94
2022-08-28T11:47:38.311Z,26.03
2022-08-28T11:50:15.900Z,24.40
2022-08-28T11:52:52.830Z,24.02
2022-08-28T11:55:29.246Z,23.70
2022-08-28T12:01:09.565Z,22.63
2022-08-28T12:03:44.794Z,24.24
2022-08-28T12:06:13.286Z,26.04
2022-08-28T12:08:47.619Z,27.45
2022-08-28T12:11:39.309Z,26.07
2022-08-28T12:14:26.329Z,23.94
2022-08-28T12:16:59.308Z,24.15
2022-08-28T12:19:28.757Z,23.62
2022-08-28T12:21:56.591Z,23.78
2022-08-28T12:24:24.072Z,23.91
2022-08-28T12:26:56.215Z,22.81
2022-08-28T12:29:34.912Z,25.03
2022-08-28T12:32:27.721Z,26.43
2022-08-28T12:34:57.493Z,27.85
2022-08-28T12:37:52.422Z,26.70
2022-08-28T12:40:29.776Z,27.03
2022-08-28T12:43:00.137Z,27.35
2022-08-28T12:45:33.025Z,26.70
2022-08-28T12:48:04.854Z,24.74
2022-08-28T12:50:36.524Z,23.62
2022-08-28T12:53:07.374Z,22.94
2022-08-28T12:55:34.926Z,22.23
2022-08-28T12:58:01.796Z,22.14
2022-08-28T13:00:34.898Z,22.94
2022-08-28T13:03:02.823Z,23.56
2022-08-28T13:05:31.585Z,23.27
2022-08-28T13:08:02.538Z,22.37
2022-08-28T13:10:34.073Z,21.50
2022-08-28T13:13:10.964Z,21.53
2022-08-28T13:15:51.851Z,22.74
2022-08-28T13:18:42.249Z,25.79
2022-08-28T13:21:33.036Z,28.09
2022-08-28T13:24:21.396Z,25.85
2022-08-28T13:26:50.401Z,23.08
2022-08-28T13:29:21.518Z,25.18
2022-08-28T13:32:01.458Z,24.39
2022-08-28T13:34:33.732Z,23.41
2022-08-28T13:37:15.051Z,22.94
2022-08-28T13:39:47.692Z,22.52
2022-08-28T13:42:17.946Z,21.42
2022-08-28T13:44:55.648Z,20.98
2022-08-28T13:47:22.725Z,20.65
2022-08-28T13:49:49.549Z,20.60
2022-08-28T13:52:16.637Z,20.32
2022-08-28T13:54:45.259Z,20.31
2022-08-28T13:57:13.693Z,20.55
2022-08-28T13:59:41.076Z,20.80
2022-08-28T14:02:30.592Z,20.94
2022-08-28T14:04:57.492Z,21.20
2022-08-28T14:07:24.428Z,21.22
2022-08-28T14:09:56.009Z,20.96
2022-08-28T14:12:32.726Z,21.06
2022-08-28T14:15:01.768Z,21.21
2022-08-28T14:17:29.029Z,21.08
2022-08-28T14:19:56.148Z,20.87
2022-08-28T14:22:22.973Z,21.85
2022-08-28T14:24:49.759Z,21.54
2022-08-28T14:27:17.798Z,22.26
2022-08-28T14:29:44.599Z,24.22
2022-08-28T14:32:11.485Z,26.07
2022-08-28T14:34:38.425Z,24.59
2022-08-28T14:37:06.318Z,22.37
2022-08-28T14:39:33.659Z,21.52
2022-08-28T14:42:01.611Z,20.70
2022-08-28T14:44:28.382Z,20.40
2022-08-28T14:46:57.221Z,20.71
2022-08-28T14:49:26.954Z,20.48
2022-08-28T14:51:55.016Z,20.64
2022-08-28T14:54:24.105Z,20.90
2022-08-28T14:56:52.726Z,22.35
2022-08-28T14:59:24.420Z,26.70
2022-08-28T15:01:52.759Z,28.34
2022-08-28T15:04:22.739Z,28.62
2022-08-28T15:06:51.317Z,29.58
2022-08-28T15:09:19.449Z,28.92
2022-08-28T15:11:46.399Z,28.92
2022-08-28T15:14:13.469Z,27.76
2022-08-28T15:16:43.833Z,28.70
2022-08-28T15:19:13.171Z,29.32
2022-08-28T15:21:46.432Z,28.48
2022-08-28T15:24:15.889Z,28.75
2022-08-28T15:26:43.296Z,28.75
2022-08-28T15:29:11.916Z,28.87
2022-08-28T15:31:45.698Z,28.26
2022-08-28T15:34:21.569Z,27.65
2022-08-28T15:36:55.257Z,26.64
2022-08-28T15:39:46.116Z,26.65
2022-08-28T15:42:13.922Z,26.21
2022-08-28T15:44:40.730Z,25.55
2022-08-28T15:47:08.159Z,23.90
2022-08-28T15:49:43.334Z,22.84
2022-08-28T15:52:13.747Z,21.85
2022-08-28T15:54:41.474Z,21.15
2022-08-28T15:57:08.216Z,20.23
2022-08-28T15:59:44.166Z,19.69
2022-08-28T16:02:16.469Z,19.13
2022-08-28T16:04:43.348Z,19.01
2022-08-28T16:07:10.146Z,19.07
2022-08-28T16:09:36.898Z,18.95
2022-08-28T16:12:04.103Z,18.93
2022-08-28T16:14:34.054Z,18.91
2022-08-28T16:17:05.804Z,18.66
2022-08-28T16:19:40.970Z,18.92
2022-08-28T16:22:13.143Z,18.99
2022-08-28T16:24:39.929Z,18.89
2022-08-28T16:27:10.658Z,19.07
2022-08-28T16:29:41.535Z,18.90
2022-08-28T16:32:08.391Z,18.78
2022-08-28T16:34:35.600Z,18.82
2022-08-28T16:37:03.873Z,18.61
2022-08-28T16:39:30.629Z,18.48
2022-08-28T16:41:57.508Z,18.34
2022-08-28T16:44:26.305Z,18.31
2022-08-28T16:46:54.200Z,18.31
2022-08-28T16:49:22.391Z,18.40
2022-08-28T16:51:49.469Z,18.43
2022-08-28T16:54:18.280Z,18.32
2022-08-28T16:56:46.127Z,18.25
2022-08-28T16:59:16.476Z,18.30
2022-08-28T17:01:43.464Z,18.24
2022-08-28T17:04:10.880Z,18.19
2022-08-28T17:06:37.773Z,18.18
2022-08-28T17:09:04.626Z,18.14
2022-08-28T17:11:32.051Z,18.15
2022-08-28T17:13:59.292Z,18.15
2022-08-28T17:16:30.151Z,18.08
2022-08-28T17:18:58.660Z,17.98
2022-08-28T17:21:44.028Z,17.74
2022-08-28T17:24:14.597Z,17.70
2022-08-28T17:26:42.560Z,17.63
2022-08-28T17:29:09.624Z,17.55
2022-08-28T17:31:37.376Z,17.59
2022-08-28T17:34:05.667Z,17.54
2022-08-28T17:36:34.286Z,17.50
2022-08-28T17:39:10.439Z,17.47
2022-08-28T17:41:39.310Z,17.44
2022-08-28T17:44:06.347Z,17.46
2022-08-28T17:46:37.738Z,17.40
2022-08-28T17:49:07.020Z,17.29
2022-08-28T17:51:43.618Z,17.18
2022-08-28T17:54:18.345Z,17.09
2022-08-28T17:56:46.374Z,16.96
2022-08-28T17:59:14.352Z,16.93
2022-08-28T18:01:42.925Z,16.82
2022-08-28T18:04:10.833Z,16.81
2022-08-28T18:06:37.950Z,16.79
2022-08-28T18:09:05.785Z,16.84
2022-08-28T18:11:33.078Z,16.79
2022-08-28T18:14:00.789Z,16.73
2022-08-28T18:16:31.447Z,16.71
2022-08-28T18:18:59.825Z,16.54
2022-08-28T18:21:27.624Z,16.57
2022-08-28T18:23:54.752Z,16.64
2022-08-28T18:26:21.590Z,16.58
2022-08-28T18:28:48.644Z,16.51
2022-08-28T18:31:18.112Z,16.46
2022-08-28T18:33:45.181Z,16.46
2022-08-28T18:36:13.830Z,16.46
2022-08-28T18:38:41.952Z,16.46
2022-08-28T18:41:09.652Z,16.52
2022-08-28T18:43:36.727Z,16.47
2022-08-28T18:46:04.903Z,16.48
2022-08-28T18:48:32.435Z,16.51
2022-08-28T18:50:59.275Z,16.50
2022-08-28T18:53:26.511Z,16.49
2022-08-28T18:55:55.114Z,16.48
2022-08-28T18:58:22.999Z,16.49
2022-08-28T19:00:50.164Z,16.61
2022-08-28T19:03:17.427Z,16.59
2022-08-28T19:05:44.258Z,16.60
2022-08-28T19:08:11.502Z,16.61
2022-08-28T19:10:38.488Z,16.60
2022-08-28T19:13:05.893Z,16.67
2022-08-28T19:15:34.173Z,16.65
2022-08-28T19:18:01.715Z,16.65
2022-08-28T19:20:29.626Z,16.60
2022-08-28T19:22:58.191Z,16.59
2022-08-28T19:25:28.359Z,16.58
2022-08-28T19:28:01.545Z,16.55
2022-08-28T19:30:33.857Z,16.52
2022-08-28T19:33:02.461Z,16.52
2022-08-28T19:35:29.469Z,16.48
2022-08-28T19:37:56.437Z,16.52
2022-08-28T19:40:23.750Z,16.49
2022-08-28T19:42:50.977Z,16.49
2022-08-28T19:45:18.334Z,16.51
2022-08-28T19:47:45.730Z,16.50
2022-08-28T19:50:14.516Z,16.51
2022-08-28T19:52:43.173Z,16.48
2022-08-28T19:55:17.699Z,16.48
2022-08-28T19:57:46.679Z,16.49
2022-08-28T20:00:16.351Z,16.44
2022-08-28T20:02:43.619Z,16.33
2022-08-28T20:05:11.094Z,16.29
2022-08-28T20:07:38.135Z,16.22
2022-08-28T20:10:05.862Z,16.24
2022-08-28T20:12:33.024Z,16.17
2022-08-28T20:15:03.238Z,16.14
2022-08-28T20:17:30.760Z,16.08
2022-08-28T20:20:02.288Z,15.99
2022-08-28T20:22:29.580Z,15.86
2022-08-28T20:24:56.332Z,15.89
2022-08-28T20:27:23.706Z,15.95
2022-08-28T20:29:50.513Z,16.04
2022-08-28T20:32:17.334Z,16.06
2022-08-28T20:34:44.710Z,16.01
2022-08-28T20:37:11.588Z,15.99
2022-08-28T20:39:41.513Z,15.99
2022-08-28T20:42:09.859Z,16.01
2022-08-28T20:44:36.810Z,16.01
2022-08-28T20:47:04.737Z,16.00
2022-08-28T20:49:31.719Z,15.95
2022-08-28T20:52:01.037Z,15.86
2022-08-28T20:54:34.490Z,15.90
2022-08-28T20:57:04.970Z,15.94
2022-08-28T20:59:35.519Z,15.95
2022-08-28T21:02:09.061Z,15.98
2022-08-28T21:04:37.529Z,16.02
2022-08-28T21:07:05.842Z,16.05
2022-08-28T21:09:33.413Z,16.11
2022-08-28T21:12:20.083Z,16.06
2022-08-28T21:14:51.373Z,16.00
2022-08-28T21:17:28.981Z,15.98
2022-08-28T21:19:58.533Z,16.08
2022-08-28T21:22:25.359Z,16.07
2022-08-28T21:24:52.136Z,16.13
2022-08-28T21:27:18.878Z,16.16
2022-08-28T21:29:46.024Z,16.14
2022-08-28T21:32:13.188Z,16.02
2022-08-28T21:34:40.050Z,15.98
2022-08-28T21:37:06.794Z,15.99
2022-08-28T21:39:34.767Z,16.02
2022-08-28T21:42:01.757Z,16.02
2022-08-28T21:44:29.025Z,16.03
2022-08-28T21:46:55.875Z,16.18
2022-08-28T21:49:23.069Z,16.25
2022-08-28T21:51:50.562Z,16.27
2022-08-28T21:54:18.229Z,16.32
2022-08-28T21:56:46.000Z,16.31
2022-08-28T21:59:12.956Z,16.27
2022-08-28T22:01:39.990Z,16.22
2022-08-28T22:04:07.413Z,16.20
2022-08-28T22:06:34.641Z,16.18
2022-08-28T22:09:02.293Z,16.06
2022-08-28T22:11:29.134Z,15.89
2022-08-28T22:13:56.758Z,15.98
2022-08-28T22:16:25.216Z,16.06
2022-08-28T22:18:52.136Z,16.10
2022-08-28T22:21:41.446Z,16.08
2022-08-28T22:24:10.336Z,15.98
2022-08-28T22:26:37.868Z,16.06
2022-08-28T22:29:05.865Z,16.17
2022-08-28T22:31:32.956Z,16.24
2022-08-28T22:33:59.774Z,16.30
2022-08-28T22:36:29.259Z,16.35
2022-08-28T22:38:57.059Z,16.39
2022-08-28T22:41:25.264Z,16.41
2022-08-28T22:43:53.529Z,16.43
2022-08-28T22:46:21.033Z,16.43
2022-08-28T22:48:48.700Z,16.49
2022-08-28T22:51:20.784Z,16.48
2022-08-28T22:53:47.922Z,16.47
2022-08-28T22:56:17.095Z,16.49
2022-08-28T22:58:44.674Z,16.47
2022-08-28T23:01:15.508Z,16.43
2022-08-28T23:03:42.846Z,16.44
2022-08-28T23:06:09.719Z,16.43
2022-08-28T23:08:36.576Z,16.43
2022-08-28T23:11:03.647Z,16.41
2022-08-28T23:13:31.296Z,16.40
2022-08-28T23:15:58.520Z,16.41
2022-08-28T23:18:25.338Z,16.41
2022-08-28T23:20:52.505Z,16.42
2022-08-28T23:23:20.144Z,16.43
2022-08-28T23:25:47.273Z,16.45
2022-08-28T23:28:14.029Z,16.49
2022-08-28T23:30:44.030Z,16.49
2022-08-28T23:33:23.114Z,16.48
2022-08-28T23:35:52.099Z,16.48
2022-08-28T23:38:19.326Z,16.48
2022-08-28T23:40:48.112Z,16.50
2022-08-28T23:43:15.442Z,16.48
2022-08-28T23:45:43.583Z,16.44
2022-08-28T23:48:11.256Z,16.38
2022-08-28T23:50:41.301Z,16.35
2022-08-28T23:53:08.313Z,16.36
2022-08-28T23:55:36.303Z,16.36
2022-08-28T23:58:03.240Z,16.34
